Aurora, Indiana
Current Conditions -  °F | °C
As of 12:52 PM on Saturday 25 Oct 2014 (Local Time) from KCVG Reporting Station
Overcast Overcast  
Wind Chill: 66°   Ceiling: 2100
Heat Index: 66°   Visibility: 10mi
Dew Point: 55°   Wind: 8mph
Humidity: 68%   Direction: 220°SW
Pressure: 29.97"   Gusts: NA
Location:  39.06°N, 84.9°W
Report Text: KCVG 251652Z 22007KT 10SM BKN021 OVC023 19/13 A2997 RMK AO2 SLP143 T01890128
Loading
Personal Weather Stations






























Interactive Weather Map New forecast layout! Learn more

10-Day Weather Forecast

Advertisements
Track Severe Weather on mobile